sensor_id;sensor_type;location;lat;lon;timestamp;P1;durP1;ratioP1;P2;durP2;ratioP2
16393;SDS011;8306;51.128;4.476;2022-09-12T00:01:59;10.13;;;9.50;;
16393;SDS011;8306;51.128;4.476;2022-09-12T00:04:26;10.03;;;9.43;;
16393;SDS011;8306;51.128;4.476;2022-09-12T00:06:52;9.80;;;9.27;;
16393;SDS011;8306;51.128;4.476;2022-09-12T00:09:19;10.53;;;9.83;;
16393;SDS011;8306;51.128;4.476;2022-09-12T00:11:45;11.13;;;10.43;;
16393;SDS011;8306;51.128;4.476;2022-09-12T00:14:13;11.37;;;10.40;;
16393;SDS011;8306;51.128;4.476;2022-09-12T00:16:38;10.83;;;10.23;;
16393;SDS011;8306;51.128;4.476;2022-09-12T00:19:06;10.07;;;9.47;;
16393;SDS011;8306;51.128;4.476;2022-09-12T00:21:32;11.23;;;10.53;;
16393;SDS011;8306;51.128;4.476;2022-09-12T00:23:58;10.70;;;10.10;;
16393;SDS011;8306;51.128;4.476;2022-09-12T00:26:24;12.07;;;11.23;;
16393;SDS011;8306;51.128;4.476;2022-09-12T00:28:51;11.33;;;10.63;;
16393;SDS011;8306;51.128;4.476;2022-09-12T00:31:19;11.10;;;10.40;;
16393;SDS011;8306;51.128;4.476;2022-09-12T00:33:44;10.53;;;9.83;;
16393;SDS011;8306;51.128;4.476;2022-09-12T00:36:14;11.13;;;10.43;;
16393;SDS011;8306;51.128;4.476;2022-09-12T00:38:37;10.97;;;10.27;;
16393;SDS011;8306;51.128;4.476;2022-09-12T00:41:04;11.53;;;10.83;;
16393;SDS011;8306;51.128;4.476;2022-09-12T00:48:27;11.90;;;11.17;;
16393;SDS011;8306;51.128;4.476;2022-09-12T00:50:52;11.90;;;11.10;;
16393;SDS011;8306;51.128;4.476;2022-09-12T00:53:18;10.97;;;10.27;;
16393;SDS011;8306;51.128;4.476;2022-09-12T00:55:46;10.47;;;9.73;;
16393;SDS011;8306;51.128;4.476;2022-09-12T00:58:13;11.57;;;10.87;;
16393;SDS011;8306;51.128;4.476;2022-09-12T01:00:44;12.20;;;11.30;;
16393;SDS011;8306;51.128;4.476;2022-09-12T01:03:11;10.87;;;10.20;;
16393;SDS011;8306;51.128;4.476;2022-09-12T01:05:38;12.17;;;11.37;;
16393;SDS011;8306;51.128;4.476;2022-09-12T01:08:04;11.37;;;10.40;;
16393;SDS011;8306;51.128;4.476;2022-09-12T01:10:30;11.03;;;10.33;;
16393;SDS011;8306;51.128;4.476;2022-09-12T01:12:56;11.83;;;11.13;;
16393;SDS011;8306;51.128;4.476;2022-09-12T01:15:23;12.47;;;11.57;;
16393;SDS011;8306;51.128;4.476;2022-09-12T01:28:55;12.30;;;11.50;;
16393;SDS011;8306;51.128;4.476;2022-09-12T01:36:56;13.17;;;12.37;;
16393;SDS011;8306;51.128;4.476;2022-09-12T01:44:59;13.80;;;12.90;;
16393;SDS011;8306;51.128;4.476;2022-09-12T01:47:45;13.37;;;12.47;;
16393;SDS011;8306;51.128;4.476;2022-09-12T01:50:02;13.80;;;12.90;;
16393;SDS011;8306;51.128;4.476;2022-09-12T01:52:37;14.53;;;13.53;;
16393;SDS011;8306;51.128;4.476;2022-09-12T01:55:10;17.13;;;15.97;;
16393;SDS011;8306;51.128;4.476;2022-09-12T01:57:37;15.23;;;14.03;;
16393;SDS011;8306;51.128;4.476;2022-09-12T02:00:09;16.17;;;15.00;;
16393;SDS011;8306;51.128;4.476;2022-09-12T02:05:24;14.67;;;13.57;;
16393;SDS011;8306;51.128;4.476;2022-09-12T02:07:51;15.33;;;14.23;;
16393;SDS011;8306;51.128;4.476;2022-09-12T02:10:18;15.67;;;14.67;;
16393;SDS011;8306;51.128;4.476;2022-09-12T02:12:51;17.17;;;15.97;;
16393;SDS011;8306;51.128;4.476;2022-09-12T02:15:16;14.63;;;13.63;;
16393;SDS011;8306;51.128;4.476;2022-09-12T02:17:42;15.03;;;14.03;;
16393;SDS011;8306;51.128;4.476;2022-09-12T02:20:19;13.43;;;12.53;;
16393;SDS011;8306;51.128;4.476;2022-09-12T02:22:49;13.93;;;12.93;;
16393;SDS011;8306;51.128;4.476;2022-09-12T02:25:16;14.17;;;13.23;;
16393;SDS011;8306;51.128;4.476;2022-09-12T02:27:52;14.07;;;12.97;;
16393;SDS011;8306;51.128;4.476;2022-09-12T02:30:15;13.57;;;12.67;;
16393;SDS011;8306;51.128;4.476;2022-09-12T02:33:00;13.77;;;12.87;;
16393;SDS011;8306;51.128;4.476;2022-09-12T02:38:06;15.20;;;13.70;;
16393;SDS011;8306;51.128;4.476;2022-09-12T02:40:28;14.60;;;13.50;;
16393;SDS011;8306;51.128;4.476;2022-09-12T02:42:54;13.90;;;12.90;;
16393;SDS011;8306;51.128;4.476;2022-09-12T02:45:21;13.20;;;12.40;;
16393;SDS011;8306;51.128;4.476;2022-09-12T02:50:32;13.70;;;12.60;;
16393;SDS011;8306;51.128;4.476;2022-09-12T02:52:59;13.90;;;13.00;;
16393;SDS011;8306;51.128;4.476;2022-09-12T02:55:25;14.87;;;13.40;;
16393;SDS011;8306;51.128;4.476;2022-09-12T02:57:52;14.67;;;13.50;;
16393;SDS011;8306;51.128;4.476;2022-09-12T03:00:18;14.37;;;13.37;;
16393;SDS011;8306;51.128;4.476;2022-09-12T03:05:30;14.17;;;13.20;;
16393;SDS011;8306;51.128;4.476;2022-09-12T03:10:35;15.57;;;14.50;;
16393;SDS011;8306;51.128;4.476;2022-09-12T03:13:24;16.93;;;15.43;;
16393;SDS011;8306;51.128;4.476;2022-09-12T03:18:55;15.67;;;14.47;;
16393;SDS011;8306;51.128;4.476;2022-09-12T03:24:16;16.83;;;15.57;;
16393;SDS011;8306;51.128;4.476;2022-09-12T03:27:11;17.20;;;15.87;;
16393;SDS011;8306;51.128;4.476;2022-09-12T03:29:25;15.87;;;14.67;;
16393;SDS011;8306;51.128;4.476;2022-09-12T03:31:53;16.23;;;14.93;;
16393;SDS011;8306;51.128;4.476;2022-09-12T03:34:18;14.97;;;13.87;;
16393;SDS011;8306;51.128;4.476;2022-09-12T03:36:45;18.30;;;16.70;;
16393;SDS011;8306;51.128;4.476;2022-09-12T03:39:11;18.53;;;16.80;;
16393;SDS011;8306;51.128;4.476;2022-09-12T03:41:38;16.97;;;15.73;;
16393;SDS011;8306;51.128;4.476;2022-09-12T03:44:04;16.77;;;15.57;;
16393;SDS011;8306;51.128;4.476;2022-09-12T03:46:31;19.77;;;18.10;;
16393;SDS011;8306;51.128;4.476;2022-09-12T03:48:57;19.60;;;17.67;;
16393;SDS011;8306;51.128;4.476;2022-09-12T03:51:24;16.70;;;15.40;;
16393;SDS011;8306;51.128;4.476;2022-09-12T03:53:50;18.37;;;16.87;;
16393;SDS011;8306;51.128;4.476;2022-09-12T03:56:17;17.90;;;16.30;;
16393;SDS011;8306;51.128;4.476;2022-09-12T03:58:43;17.70;;;16.33;;
16393;SDS011;8306;51.128;4.476;2022-09-12T04:01:10;16.30;;;15.10;;
16393;SDS011;8306;51.128;4.476;2022-09-12T04:03:37;17.00;;;15.60;;
16393;SDS011;8306;51.128;4.476;2022-09-12T04:06:06;16.03;;;14.83;;
16393;SDS011;8306;51.128;4.476;2022-09-12T04:08:32;17.37;;;16.07;;
16393;SDS011;8306;51.128;4.476;2022-09-12T04:11:08;16.67;;;15.47;;
16393;SDS011;8306;51.128;4.476;2022-09-12T04:13:31;16.50;;;15.20;;
16393;SDS011;8306;51.128;4.476;2022-09-12T04:15:57;14.97;;;13.93;;
16393;SDS011;8306;51.128;4.476;2022-09-12T04:18:24;16.90;;;15.63;;
16393;SDS011;8306;51.128;4.476;2022-09-12T04:20:50;16.27;;;15.07;;
16393;SDS011;8306;51.128;4.476;2022-09-12T04:23:17;15.23;;;13.97;;
16393;SDS011;8306;51.128;4.476;2022-09-12T04:25:43;15.20;;;14.10;;
16393;SDS011;8306;51.128;4.476;2022-09-12T04:28:10;16.30;;;15.00;;
16393;SDS011;8306;51.128;4.476;2022-09-12T04:30:36;15.23;;;14.03;;
16393;SDS011;8306;51.128;4.476;2022-09-12T04:33:02;15.13;;;13.93;;
16393;SDS011;8306;51.128;4.476;2022-09-12T04:35:29;16.30;;;14.70;;
16393;SDS011;8306;51.128;4.476;2022-09-12T04:37:55;18.27;;;16.77;;
16393;SDS011;8306;51.128;4.476;2022-09-12T04:40:22;16.37;;;15.07;;
16393;SDS011;8306;51.128;4.476;2022-09-12T04:42:48;14.90;;;13.83;;
16393;SDS011;8306;51.128;4.476;2022-09-12T04:45:15;16.50;;;15.20;;
16393;SDS011;8306;51.128;4.476;2022-09-12T04:47:41;17.43;;;15.90;;
16393;SDS011;8306;51.128;4.476;2022-09-12T04:50:08;15.80;;;14.50;;
16393;SDS011;8306;51.128;4.476;2022-09-12T04:52:34;16.57;;;15.27;;
16393;SDS011;8306;51.128;4.476;2022-09-12T04:55:01;15.07;;;13.97;;
16393;SDS011;8306;51.128;4.476;2022-09-12T04:57:27;15.03;;;13.77;;
16393;SDS011;8306;51.128;4.476;2022-09-12T04:59:54;15.53;;;14.43;;
16393;SDS011;8306;51.128;4.476;2022-09-12T05:02:20;15.93;;;14.50;;
16393;SDS011;8306;51.128;4.476;2022-09-12T05:04:47;14.80;;;13.80;;
16393;SDS011;8306;51.128;4.476;2022-09-12T05:07:13;15.40;;;14.30;;
16393;SDS011;8306;51.128;4.476;2022-09-12T05:09:40;15.43;;;14.23;;
16393;SDS011;8306;51.128;4.476;2022-09-12T05:12:06;16.57;;;15.10;;
16393;SDS011;8306;51.128;4.476;2022-09-12T05:14:33;14.90;;;13.90;;
16393;SDS011;8306;51.128;4.476;2022-09-12T05:16:59;20.50;;;18.70;;
16393;SDS011;8306;51.128;4.476;2022-09-12T05:19:26;16.47;;;15.27;;
16393;SDS011;8306;51.128;4.476;2022-09-12T05:21:52;16.37;;;15.03;;
16393;SDS011;8306;51.128;4.476;2022-09-12T05:24:19;16.87;;;15.37;;
16393;SDS011;8306;51.128;4.476;2022-09-12T05:26:45;17.00;;;15.47;;
16393;SDS011;8306;51.128;4.476;2022-09-12T05:29:12;16.10;;;14.90;;
16393;SDS011;8306;51.128;4.476;2022-09-12T05:31:38;15.00;;;13.90;;
16393;SDS011;8306;51.128;4.476;2022-09-12T05:34:05;14.43;;;13.33;;
16393;SDS011;8306;51.128;4.476;2022-09-12T05:36:31;15.67;;;14.33;;
16393;SDS011;8306;51.128;4.476;2022-09-12T05:38:58;14.37;;;13.17;;
16393;SDS011;8306;51.128;4.476;2022-09-12T05:41:25;16.20;;;14.77;;
16393;SDS011;8306;51.128;4.476;2022-09-12T05:43:55;14.40;;;13.30;;
16393;SDS011;8306;51.128;4.476;2022-09-12T05:46:18;15.23;;;14.07;;
16393;SDS011;8306;51.128;4.476;2022-09-12T05:48:44;14.17;;;13.17;;
16393;SDS011;8306;51.128;4.476;2022-09-12T05:51:17;15.47;;;14.37;;
16393;SDS011;8306;51.128;4.476;2022-09-12T05:53:42;15.57;;;14.20;;
16393;SDS011;8306;51.128;4.476;2022-09-12T05:56:10;12.90;;;11.87;;
16393;SDS011;8306;51.128;4.476;2022-09-12T05:58:36;15.93;;;14.73;;
16393;SDS011;8306;51.128;4.476;2022-09-12T06:01:06;15.97;;;14.67;;
16393;SDS011;8306;51.128;4.476;2022-09-12T06:03:31;17.60;;;16.17;;
16393;SDS011;8306;51.128;4.476;2022-09-12T06:06:00;16.10;;;14.70;;
16393;SDS011;8306;51.128;4.476;2022-09-12T06:08:24;15.80;;;14.67;;
16393;SDS011;8306;51.128;4.476;2022-09-12T06:10:51;17.57;;;16.07;;
16393;SDS011;8306;51.128;4.476;2022-09-12T06:13:17;20.73;;;18.90;;
16393;SDS011;8306;51.128;4.476;2022-09-12T06:15:44;19.97;;;18.37;;
16393;SDS011;8306;51.128;4.476;2022-09-12T06:18:10;20.87;;;19.27;;
16393;SDS011;8306;51.128;4.476;2022-09-12T06:20:37;19.67;;;17.97;;
16393;SDS011;8306;51.128;4.476;2022-09-12T06:23:03;17.63;;;16.33;;
16393;SDS011;8306;51.128;4.476;2022-09-12T06:25:30;14.77;;;13.77;;
16393;SDS011;8306;51.128;4.476;2022-09-12T06:27:56;13.10;;;12.10;;
16393;SDS011;8306;51.128;4.476;2022-09-12T06:30:23;10.77;;;10.07;;
16393;SDS011;8306;51.128;4.476;2022-09-12T06:32:49;9.43;;;8.90;;
16393;SDS011;8306;51.128;4.476;2022-09-12T06:35:15;9.20;;;8.70;;
16393;SDS011;8306;51.128;4.476;2022-09-12T06:37:45;9.90;;;9.23;;
16393;SDS011;8306;51.128;4.476;2022-09-12T06:40:12;7.47;;;6.97;;
16393;SDS011;8306;51.128;4.476;2022-09-12T06:42:38;8.20;;;7.70;;
16393;SDS011;8306;51.128;4.476;2022-09-12T06:45:04;8.00;;;7.53;;
16393;SDS011;8306;51.128;4.476;2022-09-12T06:47:31;7.70;;;7.20;;
16393;SDS011;8306;51.128;4.476;2022-09-12T06:49:57;7.30;;;6.80;;
16393;SDS011;8306;51.128;4.476;2022-09-12T06:52:24;7.83;;;7.23;;
16393;SDS011;8306;51.128;4.476;2022-09-12T06:54:50;8.47;;;7.90;;
16393;SDS011;8306;51.128;4.476;2022-09-12T06:57:17;6.30;;;5.93;;
16393;SDS011;8306;51.128;4.476;2022-09-12T06:59:43;5.97;;;5.57;;
16393;SDS011;8306;51.128;4.476;2022-09-12T07:02:10;6.77;;;6.37;;
16393;SDS011;8306;51.128;4.476;2022-09-12T07:04:36;6.77;;;6.37;;
16393;SDS011;8306;51.128;4.476;2022-09-12T07:07:03;6.35;;;6.05;;
16393;SDS011;8306;51.128;4.476;2022-09-12T07:09:29;6.90;;;6.37;;
16393;SDS011;8306;51.128;4.476;2022-09-12T07:11:56;6.37;;;5.97;;
16393;SDS011;8306;51.128;4.476;2022-09-12T07:14:22;6.50;;;6.10;;
16393;SDS011;8306;51.128;4.476;2022-09-12T07:16:49;8.48;;;7.85;;
16393;SDS011;8306;51.128;4.476;2022-09-12T07:19:15;7.93;;;7.45;;
16393;SDS011;8306;51.128;4.476;2022-09-12T07:21:42;7.90;;;7.30;;
16393;SDS011;8306;51.128;4.476;2022-09-12T07:24:08;7.47;;;7.07;;
16393;SDS011;8306;51.128;4.476;2022-09-12T07:26:35;7.90;;;7.40;;
16393;SDS011;8306;51.128;4.476;2022-09-12T07:29:01;6.45;;;6.12;;
16393;SDS011;8306;51.128;4.476;2022-09-12T07:31:28;5.95;;;5.60;;
16393;SDS011;8306;51.128;4.476;2022-09-12T07:33:54;6.18;;;5.78;;
16393;SDS011;8306;51.128;4.476;2022-09-12T07:36:22;5.10;;;4.80;;
16393;SDS011;8306;51.128;4.476;2022-09-12T07:38:47;5.80;;;5.40;;
16393;SDS011;8306;51.128;4.476;2022-09-12T07:43:46;5.70;;;5.40;;
16393;SDS011;8306;51.128;4.476;2022-09-12T07:46:12;6.37;;;5.93;;
16393;SDS011;8306;51.128;4.476;2022-09-12T07:48:39;5.47;;;5.18;;
16393;SDS011;8306;51.128;4.476;2022-09-12T07:51:06;6.10;;;5.70;;
16393;SDS011;8306;51.128;4.476;2022-09-12T07:53:33;5.15;;;4.85;;
16393;SDS011;8306;51.128;4.476;2022-09-12T07:55:58;5.70;;;5.30;;
16393;SDS011;8306;51.128;4.476;2022-09-12T07:58:25;5.47;;;5.18;;
16393;SDS011;8306;51.128;4.476;2022-09-12T08:00:51;5.93;;;5.43;;
16393;SDS011;8306;51.128;4.476;2022-09-12T08:03:18;6.07;;;5.65;;
16393;SDS011;8306;51.128;4.476;2022-09-12T08:05:44;5.18;;;4.87;;
16393;SDS011;8306;51.128;4.476;2022-09-12T08:08:11;5.10;;;4.80;;
16393;SDS011;8306;51.128;4.476;2022-09-12T08:10:37;4.78;;;4.47;;
16393;SDS011;8306;51.128;4.476;2022-09-12T08:13:04;4.70;;;4.40;;
16393;SDS011;8306;51.128;4.476;2022-09-12T08:15:30;6.15;;;5.75;;
16393;SDS011;8306;51.128;4.476;2022-09-12T08:17:56;4.57;;;4.37;;
16393;SDS011;8306;51.128;4.476;2022-09-12T08:20:23;5.15;;;4.82;;
16393;SDS011;8306;51.128;4.476;2022-09-12T08:22:49;5.18;;;4.78;;
16393;SDS011;8306;51.128;4.476;2022-09-12T08:25:16;4.93;;;4.40;;
16393;SDS011;8306;51.128;4.476;2022-09-12T08:27:42;4.50;;;4.30;;
16393;SDS011;8306;51.128;4.476;2022-09-12T08:30:09;4.65;;;4.35;;
16393;SDS011;8306;51.128;4.476;2022-09-12T08:32:35;4.12;;;3.83;;
16393;SDS011;8306;51.128;4.476;2022-09-12T08:35:02;4.45;;;4.15;;
16393;SDS011;8306;51.128;4.476;2022-09-12T08:37:29;4.40;;;4.10;;
16393;SDS011;8306;51.128;4.476;2022-09-12T08:39:55;5.05;;;4.75;;
16393;SDS011;8306;51.128;4.476;2022-09-12T08:42:25;4.15;;;3.95;;
16393;SDS011;8306;51.128;4.476;2022-09-12T08:44:54;4.03;;;3.72;;
16393;SDS011;8306;51.128;4.476;2022-09-12T08:47:24;3.87;;;3.67;;
16393;SDS011;8306;51.128;4.476;2022-09-12T08:50:09;4.00;;;3.70;;
16393;SDS011;8306;51.128;4.476;2022-09-12T08:55:03;4.15;;;3.92;;
16393;SDS011;8306;51.128;4.476;2022-09-12T08:57:29;3.67;;;3.47;;
16393;SDS011;8306;51.128;4.476;2022-09-12T08:59:55;3.80;;;3.55;;
16393;SDS011;8306;51.128;4.476;2022-09-12T09:02:36;3.65;;;3.35;;
16393;SDS011;8306;51.128;4.476;2022-09-12T09:13:07;3.33;;;3.12;;
16393;SDS011;8306;51.128;4.476;2022-09-12T09:18:25;2.83;;;2.65;;
16393;SDS011;8306;51.128;4.476;2022-09-12T09:20:51;3.97;;;2.75;;
16393;SDS011;8306;51.128;4.476;2022-09-12T09:26:12;2.30;;;2.20;;
16393;SDS011;8306;51.128;4.476;2022-09-12T09:28:51;1.95;;;1.85;;
16393;SDS011;8306;51.128;4.476;2022-09-12T09:31:21;2.75;;;2.55;;
16393;SDS011;8306;51.128;4.476;2022-09-12T09:33:50;2.42;;;2.20;;
16393;SDS011;8306;51.128;4.476;2022-09-12T09:39:13;3.15;;;2.50;;
16393;SDS011;8306;51.128;4.476;2022-09-12T09:41:59;2.20;;;2.08;;
16393;SDS011;8306;51.128;4.476;2022-09-12T09:44:36;2.62;;;2.50;;
16393;SDS011;8306;51.128;4.476;2022-09-12T09:47:02;3.47;;;2.50;;
16393;SDS011;8306;51.128;4.476;2022-09-12T09:49:29;1.98;;;1.87;;
16393;SDS011;8306;51.128;4.476;2022-09-12T09:51:55;2.70;;;2.50;;
16393;SDS011;8306;51.128;4.476;2022-09-12T09:54:30;2.20;;;2.03;;
16393;SDS011;8306;51.128;4.476;2022-09-12T09:56:54;1.83;;;1.73;;
16393;SDS011;8306;51.128;4.476;2022-09-12T09:59:27;2.15;;;1.98;;
16393;SDS011;8306;51.128;4.476;2022-09-12T10:06:51;2.20;;;2.10;;
16393;SDS011;8306;51.128;4.476;2022-09-12T10:09:26;2.03;;;1.92;;
16393;SDS011;8306;51.128;4.476;2022-09-12T10:11:53;2.20;;;2.10;;
16393;SDS011;8306;51.128;4.476;2022-09-12T10:14:29;2.30;;;2.10;;
16393;SDS011;8306;51.128;4.476;2022-09-12T10:16:57;2.60;;;2.40;;
16393;SDS011;8306;51.128;4.476;2022-09-12T10:19:32;1.95;;;1.83;;
16393;SDS011;8306;51.128;4.476;2022-09-12T10:21:50;2.10;;;2.00;;
16393;SDS011;8306;51.128;4.476;2022-09-12T10:24:31;2.10;;;2.00;;
16393;SDS011;8306;51.128;4.476;2022-09-12T10:27:04;1.90;;;1.80;;
16393;SDS011;8306;51.128;4.476;2022-09-12T10:29:24;1.98;;;1.87;;
16393;SDS011;8306;51.128;4.476;2022-09-12T10:31:51;1.87;;;1.77;;
16393;SDS011;8306;51.128;4.476;2022-09-12T10:35:00;1.90;;;1.80;;
16393;SDS011;8306;51.128;4.476;2022-09-12T10:36:45;1.77;;;1.67;;
16393;SDS011;8306;51.128;4.476;2022-09-12T10:39:16;1.52;;;1.42;;
16393;SDS011;8306;51.128;4.476;2022-09-12T10:41:41;1.65;;;1.55;;
16393;SDS011;8306;51.128;4.476;2022-09-12T10:44:13;1.90;;;1.80;;
16393;SDS011;8306;51.128;4.476;2022-09-12T10:46:40;1.70;;;1.60;;
16393;SDS011;8306;51.128;4.476;2022-09-12T10:49:16;1.60;;;1.50;;
16393;SDS011;8306;51.128;4.476;2022-09-12T10:51:48;1.58;;;1.48;;
16393;SDS011;8306;51.128;4.476;2022-09-12T10:54:15;1.98;;;1.70;;
16393;SDS011;8306;51.128;4.476;2022-09-12T10:56:47;1.70;;;1.60;;
16393;SDS011;8306;51.128;4.476;2022-09-12T11:01:48;1.83;;;1.70;;
16393;SDS011;8306;51.128;4.476;2022-09-12T11:04:25;1.50;;;1.40;;
16393;SDS011;8306;51.128;4.476;2022-09-12T11:09:33;1.90;;;1.35;;
16393;SDS011;8306;51.128;4.476;2022-09-12T11:25:41;1.25;;;1.25;;
16393;SDS011;8306;51.128;4.476;2022-09-12T11:34:12;1.50;;;1.40;;
16393;SDS011;8306;51.128;4.476;2022-09-12T11:36:53;1.60;;;1.50;;
16393;SDS011;8306;51.128;4.476;2022-09-12T11:39:38;1.70;;;1.40;;
16393;SDS011;8306;51.128;4.476;2022-09-12T11:42:04;1.17;;;1.17;;
16393;SDS011;8306;51.128;4.476;2022-09-12T11:44:36;1.62;;;1.52;;
16393;SDS011;8306;51.128;4.476;2022-09-12T11:47:04;1.20;;;1.20;;
16393;SDS011;8306;51.128;4.476;2022-09-12T11:49:36;1.10;;;1.10;;
16393;SDS011;8306;51.128;4.476;2022-09-12T11:54:49;1.12;;;1.12;;
16393;SDS011;8306;51.128;4.476;2022-09-12T11:57:52;1.50;;;1.20;;
16393;SDS011;8306;51.128;4.476;2022-09-12T12:00:18;1.40;;;1.30;;
16393;SDS011;8306;51.128;4.476;2022-09-12T12:08:07;1.08;;;1.08;;
16393;SDS011;8306;51.128;4.476;2022-09-12T12:10:37;1.37;;;1.27;;
16393;SDS011;8306;51.128;4.476;2022-09-12T12:18:33;1.20;;;1.10;;
16393;SDS011;8306;51.128;4.476;2022-09-12T12:29:09;1.85;;;1.30;;
16393;SDS011;8306;51.128;4.476;2022-09-12T12:37:51;2.25;;;1.45;;
16393;SDS011;8306;51.128;4.476;2022-09-12T12:50:04;2.27;;;1.00;;
16393;SDS011;8306;51.128;4.476;2022-09-12T12:52:40;1.63;;;1.17;;
16393;SDS011;8306;51.128;4.476;2022-09-12T12:54:56;1.40;;;1.30;;
16393;SDS011;8306;51.128;4.476;2022-09-12T12:59:56;1.30;;;1.20;;
16393;SDS011;8306;51.128;4.476;2022-09-12T13:02:26;1.90;;;1.50;;
16393;SDS011;8306;51.128;4.476;2022-09-12T13:04:53;1.40;;;1.10;;
16393;SDS011;8306;51.128;4.476;2022-09-12T13:07:23;1.10;;;1.10;;
16393;SDS011;8306;51.128;4.476;2022-09-12T13:09:46;1.03;;;1.00;;
16393;SDS011;8306;51.128;4.476;2022-09-12T13:12:21;1.73;;;1.30;;
16393;SDS011;8306;51.128;4.476;2022-09-12T13:14:49;2.10;;;1.52;;
16393;SDS011;8306;51.128;4.476;2022-09-12T13:17:19;2.00;;;1.00;;
16393;SDS011;8306;51.128;4.476;2022-09-12T13:19:43;3.00;;;1.27;;
16393;SDS011;8306;51.128;4.476;2022-09-12T13:22:10;1.83;;;1.10;;
16393;SDS011;8306;51.128;4.476;2022-09-12T13:24:45;1.10;;;1.00;;
16393;SDS011;8306;51.128;4.476;2022-09-12T13:29:43;1.23;;;1.13;;
16393;SDS011;8306;51.128;4.476;2022-09-12T13:32:10;1.00;;;1.00;;
16393;SDS011;8306;51.128;4.476;2022-09-12T13:34:41;1.57;;;1.03;;
16393;SDS011;8306;51.128;4.476;2022-09-12T13:39:47;1.43;;;1.27;;
16393;SDS011;8306;51.128;4.476;2022-09-12T13:45:00;1.17;;;1.10;;
16393;SDS011;8306;51.128;4.476;2022-09-12T13:47:33;1.40;;;0.90;;
16393;SDS011;8306;51.128;4.476;2022-09-12T13:50:03;1.83;;;1.10;;
16393;SDS011;8306;51.128;4.476;2022-09-12T13:52:29;1.20;;;1.10;;
16393;SDS011;8306;51.128;4.476;2022-09-12T13:54:56;1.20;;;1.10;;
16393;SDS011;8306;51.128;4.476;2022-09-12T13:57:32;0.88;;;0.88;;
16393;SDS011;8306;51.128;4.476;2022-09-12T14:00:02;1.57;;;1.00;;
16393;SDS011;8306;51.128;4.476;2022-09-12T14:02:27;1.07;;;1.00;;
16393;SDS011;8306;51.128;4.476;2022-09-12T14:04:53;1.27;;;1.17;;
16393;SDS011;8306;51.128;4.476;2022-09-12T14:07:45;1.60;;;1.20;;
16393;SDS011;8306;51.128;4.476;2022-09-12T14:12:53;1.30;;;1.20;;
16393;SDS011;8306;51.128;4.476;2022-09-12T14:15:24;1.37;;;1.27;;
16393;SDS011;8306;51.128;4.476;2022-09-12T14:17:53;1.67;;;1.20;;
16393;SDS011;8306;51.128;4.476;2022-09-12T14:20:18;2.17;;;1.20;;
16393;SDS011;8306;51.128;4.476;2022-09-12T14:22:45;1.80;;;1.17;;
16393;SDS011;8306;51.128;4.476;2022-09-12T14:25:15;1.47;;;1.20;;
16393;SDS011;8306;51.128;4.476;2022-09-12T14:27:47;3.90;;;1.30;;
16393;SDS011;8306;51.128;4.476;2022-09-12T14:33:02;2.30;;;1.50;;
16393;SDS011;8306;51.128;4.476;2022-09-12T14:35:46;1.40;;;1.30;;
16393;SDS011;8306;51.128;4.476;2022-09-12T14:40:41;1.50;;;1.40;;
16393;SDS011;8306;51.128;4.476;2022-09-12T14:43:15;1.40;;;1.30;;
16393;SDS011;8306;51.128;4.476;2022-09-12T14:45:33;1.23;;;1.10;;
16393;SDS011;8306;51.128;4.476;2022-09-12T14:48:00;2.20;;;1.27;;
16393;SDS011;8306;51.128;4.476;2022-09-12T14:50:27;1.40;;;1.30;;
16393;SDS011;8306;51.128;4.476;2022-09-12T14:53:03;1.60;;;1.37;;
16393;SDS011;8306;51.128;4.476;2022-09-12T14:55:29;3.47;;;1.57;;
16393;SDS011;8306;51.128;4.476;2022-09-12T14:58:13;2.93;;;1.53;;
16393;SDS011;8306;51.128;4.476;2022-09-12T15:00:52;1.40;;;1.30;;
16393;SDS011;8306;51.128;4.476;2022-09-12T15:06:19;1.30;;;1.20;;
16393;SDS011;8306;51.128;4.476;2022-09-12T15:08:43;1.90;;;1.13;;
16393;SDS011;8306;51.128;4.476;2022-09-12T15:11:09;1.43;;;1.10;;
16393;SDS011;8306;51.128;4.476;2022-09-12T15:13:39;1.43;;;1.20;;
16393;SDS011;8306;51.128;4.476;2022-09-12T15:16:08;1.67;;;1.20;;
16393;SDS011;8306;51.128;4.476;2022-09-12T15:18:34;2.03;;;1.10;;
16393;SDS011;8306;51.128;4.476;2022-09-12T15:21:01;1.20;;;1.10;;
16393;SDS011;8306;51.128;4.476;2022-09-12T15:23:32;1.33;;;1.10;;
16393;SDS011;8306;51.128;4.476;2022-09-12T15:25:56;1.23;;;1.10;;
16393;SDS011;8306;51.128;4.476;2022-09-12T15:28:23;1.20;;;1.10;;
16393;SDS011;8306;51.128;4.476;2022-09-12T15:30:50;1.30;;;1.20;;
16393;SDS011;8306;51.128;4.476;2022-09-12T15:33:16;2.57;;;1.13;;
16393;SDS011;8306;51.128;4.476;2022-09-12T15:35:42;1.50;;;1.30;;
16393;SDS011;8306;51.128;4.476;2022-09-12T15:38:09;1.00;;;0.90;;
16393;SDS011;8306;51.128;4.476;2022-09-12T15:40:35;2.00;;;1.20;;
16393;SDS011;8306;51.128;4.476;2022-09-12T15:43:02;2.10;;;1.20;;
16393;SDS011;8306;51.128;4.476;2022-09-12T15:45:29;1.20;;;1.10;;
16393;SDS011;8306;51.128;4.476;2022-09-12T15:47:55;1.80;;;1.40;;
16393;SDS011;8306;51.128;4.476;2022-09-12T15:50:21;2.00;;;1.60;;
16393;SDS011;8306;51.128;4.476;2022-09-12T15:52:48;1.63;;;1.37;;
16393;SDS011;8306;51.128;4.476;2022-09-12T15:55:18;1.30;;;1.20;;
16393;SDS011;8306;51.128;4.476;2022-09-12T15:57:46;1.33;;;1.10;;
16393;SDS011;8306;51.128;4.476;2022-09-12T16:00:13;2.10;;;1.20;;
16393;SDS011;8306;51.128;4.476;2022-09-12T16:02:39;1.87;;;1.00;;
16393;SDS011;8306;51.128;4.476;2022-09-12T16:05:06;1.67;;;1.10;;
16393;SDS011;8306;51.128;4.476;2022-09-12T16:07:32;2.30;;;2.03;;
16393;SDS011;8306;51.128;4.476;2022-09-12T16:09:58;2.10;;;1.70;;
16393;SDS011;8306;51.128;4.476;2022-09-12T16:12:25;3.90;;;3.60;;
16393;SDS011;8306;51.128;4.476;2022-09-12T16:14:51;4.07;;;3.77;;
16393;SDS011;8306;51.128;4.476;2022-09-12T16:17:18;3.60;;;2.50;;
16393;SDS011;8306;51.128;4.476;2022-09-12T16:19:44;2.80;;;1.40;;
16393;SDS011;8306;51.128;4.476;2022-09-12T16:22:11;1.87;;;1.27;;
16393;SDS011;8306;51.128;4.476;2022-09-12T16:24:37;4.47;;;4.07;;
16393;SDS011;8306;51.128;4.476;2022-09-12T16:27:04;7.97;;;5.07;;
16393;SDS011;8306;51.128;4.476;2022-09-12T16:29:30;4.67;;;4.27;;
16393;SDS011;8306;51.128;4.476;2022-09-12T16:31:57;3.40;;;2.90;;
16393;SDS011;8306;51.128;4.476;2022-09-12T16:34:23;2.57;;;1.97;;
16393;SDS011;8306;51.128;4.476;2022-09-12T16:36:50;2.97;;;2.40;;
16393;SDS011;8306;51.128;4.476;2022-09-12T16:39:16;2.73;;;2.53;;
16393;SDS011;8306;51.128;4.476;2022-09-12T16:41:43;3.97;;;3.67;;
16393;SDS011;8306;51.128;4.476;2022-09-12T16:44:09;4.40;;;4.00;;
16393;SDS011;8306;51.128;4.476;2022-09-12T16:46:36;8.70;;;6.43;;
16393;SDS011;8306;51.128;4.476;2022-09-12T16:49:03;5.23;;;4.73;;
16393;SDS011;8306;51.128;4.476;2022-09-12T16:51:32;5.27;;;3.97;;
16393;SDS011;8306;51.128;4.476;2022-09-12T16:53:58;5.40;;;4.30;;
16393;SDS011;8306;51.128;4.476;2022-09-12T16:56:25;4.20;;;3.10;;
16393;SDS011;8306;51.128;4.476;2022-09-12T16:58:51;2.50;;;2.30;;
16393;SDS011;8306;51.128;4.476;2022-09-12T17:01:18;2.43;;;2.10;;
16393;SDS011;8306;51.128;4.476;2022-09-12T17:03:44;2.40;;;2.03;;
16393;SDS011;8306;51.128;4.476;2022-09-12T17:06:11;2.70;;;2.50;;
16393;SDS011;8306;51.128;4.476;2022-09-12T17:08:38;3.43;;;3.13;;
16393;SDS011;8306;51.128;4.476;2022-09-12T17:11:05;13.07;;;3.60;;
16393;SDS011;8306;51.128;4.476;2022-09-12T17:13:30;4.93;;;4.30;;
16393;SDS011;8306;51.128;4.476;2022-09-12T17:15:57;9.63;;;8.63;;
16393;SDS011;8306;51.128;4.476;2022-09-12T17:18:24;7.10;;;4.67;;
16393;SDS011;8306;51.128;4.476;2022-09-12T17:20:50;2.63;;;2.00;;
16393;SDS011;8306;51.128;4.476;2022-09-12T17:23:16;2.37;;;2.00;;
16393;SDS011;8306;51.128;4.476;2022-09-12T17:25:49;2.27;;;1.60;;
16393;SDS011;8306;51.128;4.476;2022-09-12T17:28:12;2.00;;;1.80;;
16393;SDS011;8306;51.128;4.476;2022-09-12T17:30:38;1.60;;;1.50;;
16393;SDS011;8306;51.128;4.476;2022-09-12T17:33:05;1.97;;;1.40;;